sensor_id;sensor_type;location;lat;lon;timestamp;pressure;altitude;pressure_sealevel;temperature
67966;BMP280;54749;47.850;9.002;2022-12-29T00:00:19;95897.00;;;2.12
67966;BMP280;54749;47.850;9.002;2022-12-29T00:03:06;95903.47;;;2.16
67966;BMP280;54749;47.850;9.002;2022-12-29T00:05:33;95886.84;;;2.16
67966;BMP280;54749;47.850;9.002;2022-12-29T00:08:00;95887.63;;;2.17
67966;BMP280;54749;47.850;9.002;2022-12-29T00:10:28;95882.56;;;2.18
67966;BMP280;54749;47.850;9.002;2022-12-29T00:12:55;95874.22;;;2.19
67966;BMP280;54749;47.850;9.002;2022-12-29T00:15:40;95875.72;;;2.23
67966;BMP280;54749;47.850;9.002;2022-12-29T00:18:08;95872.19;;;2.27
67966;BMP280;54749;47.850;9.002;2022-12-29T00:20:36;95868.53;;;2.34
67966;BMP280;54749;47.850;9.002;2022-12-29T00:23:22;95859.97;;;2.39
67966;BMP280;54749;47.850;9.002;2022-12-29T00:26:12;95870.56;;;2.44
67966;BMP280;54749;47.850;9.002;2022-12-29T00:28:59;95868.81;;;2.46
67966;BMP280;54749;47.850;9.002;2022-12-29T00:31:45;95869.63;;;2.46
67966;BMP280;54749;47.850;9.002;2022-12-29T00:34:31;95859.75;;;2.44
67966;BMP280;54749;47.850;9.002;2022-12-29T00:37:17;95857.00;;;2.49
67966;BMP280;54749;47.850;9.002;2022-12-29T00:40:04;95854.34;;;2.52
67966;BMP280;54749;47.850;9.002;2022-12-29T00:42:51;95844.38;;;2.52
67966;BMP280;54749;47.850;9.002;2022-12-29T00:45:36;95843.56;;;2.52
67966;BMP280;54749;47.850;9.002;2022-12-29T00:48:04;95847.91;;;2.48
67966;BMP280;54749;47.850;9.002;2022-12-29T00:50:31;95851.13;;;2.50
67966;BMP280;54749;47.850;9.002;2022-12-29T00:52:58;95858.47;;;2.53
67966;BMP280;54749;47.850;9.002;2022-12-29T00:55:25;95859.88;;;2.59
67966;BMP280;54749;47.850;9.002;2022-12-29T00:57:52;95868.88;;;2.61
67966;BMP280;54749;47.850;9.002;2022-12-29T01:00:19;95864.66;;;2.63
67966;BMP280;54749;47.850;9.002;2022-12-29T01:02:47;95864.44;;;2.67
67966;BMP280;54749;47.850;9.002;2022-12-29T01:05:16;95862.44;;;2.74
67966;BMP280;54749;47.850;9.002;2022-12-29T01:07:45;95867.22;;;2.78
67966;BMP280;54749;47.850;9.002;2022-12-29T01:10:12;95873.84;;;2.79
67966;BMP280;54749;47.850;9.002;2022-12-29T01:12:39;95872.88;;;2.81
67966;BMP280;54749;47.850;9.002;2022-12-29T01:15:14;95868.78;;;2.80
67966;BMP280;54749;47.850;9.002;2022-12-29T01:17:42;95870.38;;;2.81
67966;BMP280;54749;47.850;9.002;2022-12-29T01:20:10;95868.78;;;2.80
67966;BMP280;54749;47.850;9.002;2022-12-29T01:22:38;95864.50;;;2.82
67966;BMP280;54749;47.850;9.002;2022-12-29T01:25:06;95871.88;;;2.85
67966;BMP280;54749;47.850;9.002;2022-12-29T01:27:34;95868.25;;;2.91
67966;BMP280;54749;47.850;9.002;2022-12-29T01:30:01;95868.94;;;2.94
67966;BMP280;54749;47.850;9.002;2022-12-29T01:32:28;95871.13;;;3.00
67966;BMP280;54749;47.850;9.002;2022-12-29T01:34:57;95871.88;;;3.02
67966;BMP280;54749;47.850;9.002;2022-12-29T01:37:25;95874.97;;;3.07
67966;BMP280;54749;47.850;9.002;2022-12-29T01:39:52;95874.78;;;3.10
67966;BMP280;54749;47.850;9.002;2022-12-29T01:42:23;95872.09;;;3.14
67966;BMP280;54749;47.850;9.002;2022-12-29T01:44:53;95872.72;;;3.17
67966;BMP280;54749;47.850;9.002;2022-12-29T01:47:35;95857.59;;;3.20
67966;BMP280;54749;47.850;9.002;2022-12-29T01:50:12;95867.75;;;3.17
67966;BMP280;54749;47.850;9.002;2022-12-29T01:52:53;95870.97;;;3.19
67966;BMP280;54749;47.850;9.002;2022-12-29T01:55:22;95870.16;;;3.19
67966;BMP280;54749;47.850;9.002;2022-12-29T01:57:52;95864.22;;;3.21
67966;BMP280;54749;47.850;9.002;2022-12-29T02:00:20;95869.19;;;3.21
67966;BMP280;54749;47.850;9.002;2022-12-29T02:02:52;95858.34;;;3.22
67966;BMP280;54749;47.850;9.002;2022-12-29T02:07:51;95859.00;;;3.26
67966;BMP280;54749;47.850;9.002;2022-12-29T02:10:23;95868.91;;;3.27
67966;BMP280;54749;47.850;9.002;2022-12-29T02:12:52;95855.56;;;3.28
67966;BMP280;54749;47.850;9.002;2022-12-29T02:18:38;95863.75;;;3.30
67966;BMP280;54749;47.850;9.002;2022-12-29T02:30:03;95849.72;;;3.44
67966;BMP280;54749;47.850;9.002;2022-12-29T02:37:41;95848.03;;;3.45
67966;BMP280;54749;47.850;9.002;2022-12-29T02:46:11;95849.19;;;3.38
67966;BMP280;54749;47.850;9.002;2022-12-29T02:51:28;95850.56;;;3.28
67966;BMP280;54749;47.850;9.002;2022-12-29T02:53:57;95846.38;;;3.29
67966;BMP280;54749;47.850;9.002;2022-12-29T02:56:44;95839.75;;;3.28
67966;BMP280;54749;47.850;9.002;2022-12-29T02:59:12;95841.38;;;3.29
67966;BMP280;54749;47.850;9.002;2022-12-29T03:07:55;95832.84;;;3.32
67966;BMP280;54749;47.850;9.002;2022-12-29T03:13:28;95817.88;;;3.32
67966;BMP280;54749;47.850;9.002;2022-12-29T03:21:55;95814.84;;;3.26
67966;BMP280;54749;47.850;9.002;2022-12-29T03:24:50;95813.16;;;3.27
67966;BMP280;54749;47.850;9.002;2022-12-29T03:27:31;95813.09;;;3.28
67966;BMP280;54749;47.850;9.002;2022-12-29T03:30:04;95816.31;;;3.30
67966;BMP280;54749;47.850;9.002;2022-12-29T03:32:37;95822.06;;;3.32
67966;BMP280;54749;47.850;9.002;2022-12-29T03:35:08;95823.00;;;3.30
67966;BMP280;54749;47.850;9.002;2022-12-29T03:37:47;95825.44;;;3.31
67966;BMP280;54749;47.850;9.002;2022-12-29T03:40:17;95817.88;;;3.32
67966;BMP280;54749;47.850;9.002;2022-12-29T03:42:46;95826.88;;;3.35
67966;BMP280;54749;47.850;9.002;2022-12-29T03:45:14;95824.56;;;3.32
67966;BMP280;54749;47.850;9.002;2022-12-29T03:47:44;95821.47;;;3.27
67966;BMP280;54749;47.850;9.002;2022-12-29T03:50:12;95824.13;;;3.24
67966;BMP280;54749;47.850;9.002;2022-12-29T03:52:41;95817.34;;;3.26
67966;BMP280;54749;47.850;9.002;2022-12-29T03:55:09;95831.28;;;3.30
67966;BMP280;54749;47.850;9.002;2022-12-29T03:57:37;95822.88;;;3.32
67966;BMP280;54749;47.850;9.002;2022-12-29T04:00:07;95828.50;;;3.36
67966;BMP280;54749;47.850;9.002;2022-12-29T04:02:41;95825.13;;;3.37
67966;BMP280;54749;47.850;9.002;2022-12-29T04:05:14;95829.97;;;3.40
67966;BMP280;54749;47.850;9.002;2022-12-29T04:07:42;95825.63;;;3.43
67966;BMP280;54749;47.850;9.002;2022-12-29T04:10:09;95825.56;;;3.45
67966;BMP280;54749;47.850;9.002;2022-12-29T04:12:37;95818.88;;;3.45
67966;BMP280;54749;47.850;9.002;2022-12-29T04:15:05;95820.38;;;3.48
67966;BMP280;54749;47.850;9.002;2022-12-29T04:17:32;95824.34;;;3.51
67966;BMP280;54749;47.850;9.002;2022-12-29T04:20:00;95802.38;;;3.58
67966;BMP280;54749;47.850;9.002;2022-12-29T04:22:46;95812.13;;;3.62
67966;BMP280;54749;47.850;9.002;2022-12-29T04:25:13;95800.34;;;3.64
67966;BMP280;54749;47.850;9.002;2022-12-29T04:27:41;95798.66;;;3.65
67966;BMP280;54749;47.850;9.002;2022-12-29T04:30:27;95795.22;;;3.67
67966;BMP280;54749;47.850;9.002;2022-12-29T04:33:04;95787.63;;;3.68
67966;BMP280;54749;47.850;9.002;2022-12-29T04:35:32;95790.22;;;3.67
67966;BMP280;54749;47.850;9.002;2022-12-29T04:37:59;95791.16;;;3.65
67966;BMP280;54749;47.850;9.002;2022-12-29T04:40:26;95784.88;;;3.58
67966;BMP280;54749;47.850;9.002;2022-12-29T04:42:54;95790.13;;;3.53
67966;BMP280;54749;47.850;9.002;2022-12-29T04:45:22;95791.16;;;3.49
67966;BMP280;54749;47.850;9.002;2022-12-29T04:47:53;95789.84;;;3.43
67966;BMP280;54749;47.850;9.002;2022-12-29T04:50:29;95799.19;;;3.39
67966;BMP280;54749;47.850;9.002;2022-12-29T04:53:17;95800.16;;;3.37
67966;BMP280;54749;47.850;9.002;2022-12-29T04:55:49;95806.91;;;3.35
67966;BMP280;54749;47.850;9.002;2022-12-29T04:58:18;95809.69;;;3.29
67966;BMP280;54749;47.850;9.002;2022-12-29T05:00:51;95804.16;;;3.24
67966;BMP280;54749;47.850;9.002;2022-12-29T05:03:21;95807.53;;;3.23
67966;BMP280;54749;47.850;9.002;2022-12-29T05:05:49;95801.09;;;3.19
67966;BMP280;54749;47.850;9.002;2022-12-29T05:08:16;95801.38;;;3.14
67966;BMP280;54749;47.850;9.002;2022-12-29T05:10:46;95808.06;;;3.13
67966;BMP280;54749;47.850;9.002;2022-12-29T05:13:16;95814.06;;;3.09
67966;BMP280;54749;47.850;9.002;2022-12-29T05:15:52;95813.44;;;3.06
67966;BMP280;54749;47.850;9.002;2022-12-29T05:18:21;95813.72;;;3.00
67966;BMP280;54749;47.850;9.002;2022-12-29T05:20:50;95815.41;;;2.99
67966;BMP280;54749;47.850;9.002;2022-12-29T05:23:19;95810.19;;;3.04
67966;BMP280;54749;47.850;9.002;2022-12-29T05:25:54;95802.63;;;3.05
67966;BMP280;54749;47.850;9.002;2022-12-29T05:28:57;95803.50;;;3.04
67966;BMP280;54749;47.850;9.002;2022-12-29T05:31:24;95815.13;;;3.05
67966;BMP280;54749;47.850;9.002;2022-12-29T05:33:52;95811.66;;;3.08
67966;BMP280;54749;47.850;9.002;2022-12-29T05:36:19;95822.38;;;3.10
67966;BMP280;54749;47.850;9.002;2022-12-29T05:38:51;95819.00;;;3.11
67966;BMP280;54749;47.850;9.002;2022-12-29T05:41:19;95822.22;;;3.13
67966;BMP280;54749;47.850;9.002;2022-12-29T05:44:21;95822.09;;;3.15
67966;BMP280;54749;47.850;9.002;2022-12-29T05:46:54;95824.91;;;3.25
67966;BMP280;54749;47.850;9.002;2022-12-29T05:49:34;95822.78;;;3.34
67966;BMP280;54749;47.850;9.002;2022-12-29T05:52:08;95814.81;;;3.43
67966;BMP280;54749;47.850;9.002;2022-12-29T05:54:35;95812.91;;;3.48
67966;BMP280;54749;47.850;9.002;2022-12-29T05:57:08;95799.47;;;3.50
67966;BMP280;54749;47.850;9.002;2022-12-29T05:59:36;95811.13;;;3.49
67966;BMP280;54749;47.850;9.002;2022-12-29T06:02:04;95816.28;;;3.47
67966;BMP280;54749;47.850;9.002;2022-12-29T06:04:32;95815.56;;;3.45
67966;BMP280;54749;47.850;9.002;2022-12-29T06:07:00;95812.91;;;3.48
67966;BMP280;54749;47.850;9.002;2022-12-29T06:09:39;95820.09;;;3.53
67966;BMP280;54749;47.850;9.002;2022-12-29T06:12:07;95813.16;;;3.58
67966;BMP280;54749;47.850;9.002;2022-12-29T06:14:34;95812.94;;;3.63
67966;BMP280;54749;47.850;9.002;2022-12-29T06:17:03;95814.47;;;3.65
67966;BMP280;54749;47.850;9.002;2022-12-29T06:19:31;95812.72;;;3.67
67966;BMP280;54749;47.850;9.002;2022-12-29T06:21:59;95800.34;;;3.64
67966;BMP280;54749;47.850;9.002;2022-12-29T06:24:27;95807.78;;;3.66
67966;BMP280;54749;47.850;9.002;2022-12-29T06:26:54;95811.97;;;3.65
67966;BMP280;54749;47.850;9.002;2022-12-29T06:29:21;95813.59;;;3.66
67966;BMP280;54749;47.850;9.002;2022-12-29T06:31:49;95813.50;;;3.67
67966;BMP280;54749;47.850;9.002;2022-12-29T06:34:17;95819.72;;;3.76
67966;BMP280;54749;47.850;9.002;2022-12-29T06:36:45;95822.94;;;3.78
67966;BMP280;54749;47.850;9.002;2022-12-29T06:39:13;95824.72;;;3.91
67966;BMP280;54749;47.850;9.002;2022-12-29T06:41:48;95820.06;;;4.00
67966;BMP280;54749;47.850;9.002;2022-12-29T06:44:41;95819.88;;;4.03
67966;BMP280;54749;47.850;9.002;2022-12-29T06:47:10;95815.78;;;4.02
67966;BMP280;54749;47.850;9.002;2022-12-29T06:49:37;95815.94;;;3.99
67966;BMP280;54749;47.850;9.002;2022-12-29T06:52:04;95807.72;;;3.97
67966;BMP280;54749;47.850;9.002;2022-12-29T06:54:38;95804.50;;;3.95
67966;BMP280;54749;47.850;9.002;2022-12-29T06:57:05;95803.78;;;3.93
67966;BMP280;54749;47.850;9.002;2022-12-29T06:59:32;95795.38;;;3.94
67966;BMP280;54749;47.850;9.002;2022-12-29T07:02:00;95811.75;;;4.00
67966;BMP280;54749;47.850;9.002;2022-12-29T07:04:29;95811.38;;;4.07
67966;BMP280;54749;47.850;9.002;2022-12-29T07:06:56;95809.31;;;4.13
67966;BMP280;54749;47.850;9.002;2022-12-29T07:09:23;95813.34;;;4.16
67966;BMP280;54749;47.850;9.002;2022-12-29T07:11:50;95809.97;;;4.17
67966;BMP280;54749;47.850;9.002;2022-12-29T07:14:17;95814.97;;;4.17
67966;BMP280;54749;47.850;9.002;2022-12-29T07:16:45;95809.91;;;4.18
67966;BMP280;54749;47.850;9.002;2022-12-29T07:19:12;95820.53;;;4.21
67966;BMP280;54749;47.850;9.002;2022-12-29T07:21:39;95812.78;;;4.26
67966;BMP280;54749;47.850;9.002;2022-12-29T07:24:12;95804.84;;;4.33
67966;BMP280;54749;47.850;9.002;2022-12-29T07:26:40;95797.09;;;4.37
67966;BMP280;54749;47.850;9.002;2022-12-29T07:29:07;95797.91;;;4.38
67966;BMP280;54749;47.850;9.002;2022-12-29T07:31:35;95797.09;;;4.37
67966;BMP280;54749;47.850;9.002;2022-12-29T07:34:02;95806.88;;;4.42
67966;BMP280;54749;47.850;9.002;2022-12-29T07:36:29;95799.91;;;4.47
67966;BMP280;54749;47.850;9.002;2022-12-29T07:39:01;95800.47;;;4.52
67966;BMP280;54749;47.850;9.002;2022-12-29T07:41:28;95793.34;;;4.59
67966;BMP280;54749;47.850;9.002;2022-12-29T07:43:56;95797.16;;;4.66
67966;BMP280;54749;47.850;9.002;2022-12-29T07:46:34;95793.16;;;4.77
67966;BMP280;54749;47.850;9.002;2022-12-29T07:49:21;95800.00;;;4.89
67966;BMP280;54749;47.850;9.002;2022-12-29T07:51:48;95805.63;;;4.92
67966;BMP280;54749;47.850;9.002;2022-12-29T07:54:15;95807.63;;;5.01
67966;BMP280;54749;47.850;9.002;2022-12-29T07:56:45;95806.91;;;5.13
67966;BMP280;54749;47.850;9.002;2022-12-29T07:59:12;95819.66;;;5.24
67966;BMP280;54749;47.850;9.002;2022-12-29T08:01:40;95813.91;;;5.35
67966;BMP280;54749;47.850;9.002;2022-12-29T08:04:07;95821.78;;;5.43
67966;BMP280;54749;47.850;9.002;2022-12-29T08:06:35;95805.59;;;5.48
67966;BMP280;54749;47.850;9.002;2022-12-29T08:09:02;95804.59;;;5.51
67966;BMP280;54749;47.850;9.002;2022-12-29T08:11:40;95808.28;;;5.59
67966;BMP280;54749;47.850;9.002;2022-12-29T08:14:07;95812.97;;;5.65
67966;BMP280;54749;47.850;9.002;2022-12-29T08:16:35;95814.13;;;5.73
67966;BMP280;54749;47.850;9.002;2022-12-29T08:19:02;95808.75;;;5.79
67966;BMP280;54749;47.850;9.002;2022-12-29T08:21:30;95812.16;;;5.92
67966;BMP280;54749;47.850;9.002;2022-12-29T08:23:58;95805.22;;;6.09
67966;BMP280;54749;47.850;9.002;2022-12-29T08:26:26;95811.97;;;6.34
67966;BMP280;54749;47.850;9.002;2022-12-29T08:28:53;95817.25;;;6.55
67966;BMP280;54749;47.850;9.002;2022-12-29T08:31:23;95818.13;;;6.80
67966;BMP280;54749;47.850;9.002;2022-12-29T08:33:51;95813.56;;;6.99
67966;BMP280;54749;47.850;9.002;2022-12-29T08:36:18;95819.63;;;7.08
67966;BMP280;54749;47.850;9.002;2022-12-29T08:38:45;95820.66;;;7.18
67966;BMP280;54749;47.850;9.002;2022-12-29T08:41:12;95823.78;;;7.34
67966;BMP280;54749;47.850;9.002;2022-12-29T08:43:39;95829.81;;;7.43
67966;BMP280;54749;47.850;9.002;2022-12-29T08:46:07;95820.03;;;7.63
67966;BMP280;54749;47.850;9.002;2022-12-29T08:48:34;95813.78;;;7.93
67966;BMP280;54749;47.850;9.002;2022-12-29T08:51:01;95807.94;;;8.17
67966;BMP280;54749;47.850;9.002;2022-12-29T08:53:28;95823.59;;;8.32
67966;BMP280;54749;47.850;9.002;2022-12-29T08:55:59;95828.38;;;8.47
67966;BMP280;54749;47.850;9.002;2022-12-29T08:58:38;95835.56;;;8.64
67966;BMP280;54749;47.850;9.002;2022-12-29T09:01:06;95822.81;;;8.77
67966;BMP280;54749;47.850;9.002;2022-12-29T09:03:33;95819.66;;;8.97
67966;BMP280;54749;47.850;9.002;2022-12-29T09:06:21;95821.00;;;9.13
67966;BMP280;54749;47.850;9.002;2022-12-29T09:08:48;95820.25;;;9.34
67966;BMP280;54749;47.850;9.002;2022-12-29T09:11:19;95820.63;;;9.51
67966;BMP280;54749;47.850;9.002;2022-12-29T09:13:47;95822.63;;;9.69
67966;BMP280;54749;47.850;9.002;2022-12-29T09:16:15;95821.28;;;9.86
67966;BMP280;54749;47.850;9.002;2022-12-29T09:18:43;95820.59;;;10.06
67966;BMP280;54749;47.850;9.002;2022-12-29T09:21:11;95817.00;;;10.19
67966;BMP280;54749;47.850;9.002;2022-12-29T09:23:39;95822.88;;;10.30
67966;BMP280;54749;47.850;9.002;2022-12-29T09:26:08;95829.97;;;10.47
67966;BMP280;54749;47.850;9.002;2022-12-29T09:28:35;95836.13;;;10.64
67966;BMP280;54749;47.850;9.002;2022-12-29T09:31:04;95841.03;;;10.76
67966;BMP280;54749;47.850;9.002;2022-12-29T09:33:31;95825.75;;;10.78
67966;BMP280;54749;47.850;9.002;2022-12-29T09:36:00;95823.19;;;10.88
67966;BMP280;54749;47.850;9.002;2022-12-29T09:38:28;95813.69;;;11.01
67966;BMP280;54749;47.850;9.002;2022-12-29T09:41:06;95818.28;;;11.07
67966;BMP280;54749;47.850;9.002;2022-12-29T09:46:39;95822.81;;;11.43
67966;BMP280;54749;47.850;9.002;2022-12-29T09:51:44;95825.69;;;11.30
67966;BMP280;54749;47.850;9.002;2022-12-29T09:56:41;95823.06;;;11.20
67966;BMP280;54749;47.850;9.002;2022-12-29T09:59:15;95818.38;;;11.16
67966;BMP280;54749;47.850;9.002;2022-12-29T10:01:46;95808.69;;;11.21
67966;BMP280;54749;47.850;9.002;2022-12-29T10:04:18;95806.00;;;11.22
67966;BMP280;54749;47.850;9.002;2022-12-29T10:10:36;95795.44;;;11.77
67966;BMP280;54749;47.850;9.002;2022-12-29T10:16:16;95792.97;;;12.16
67966;BMP280;54749;47.850;9.002;2022-12-29T10:21:44;95786.06;;;12.84
67966;BMP280;54749;47.850;9.002;2022-12-29T10:24:16;95776.06;;;13.29
67966;BMP280;54749;47.850;9.002;2022-12-29T10:26:46;95779.34;;;13.38
67966;BMP280;54749;47.850;9.002;2022-12-29T10:29:19;95777.09;;;13.26
67966;BMP280;54749;47.850;9.002;2022-12-29T10:31:59;95777.91;;;13.17
67966;BMP280;54749;47.850;9.002;2022-12-29T10:34:31;95763.25;;;13.66
67966;BMP280;54749;47.850;9.002;2022-12-29T10:37:05;95777.41;;;13.77
67966;BMP280;54749;47.850;9.002;2022-12-29T10:39:43;95778.53;;;13.56
67966;BMP280;54749;47.850;9.002;2022-12-29T10:42:25;95774.56;;;13.35
67966;BMP280;54749;47.850;9.002;2022-12-29T10:44:57;95772.31;;;12.96
67966;BMP280;54749;47.850;9.002;2022-12-29T10:47:29;95770.31;;;13.17
67966;BMP280;54749;47.850;9.002;2022-12-29T10:49:57;95758.44;;;13.81
67966;BMP280;54749;47.850;9.002;2022-12-29T10:52:26;95748.06;;;13.56
67966;BMP280;54749;47.850;9.002;2022-12-29T10:55:06;95745.66;;;13.55
67966;BMP280;54749;47.850;9.002;2022-12-29T10:57:41;95746.72;;;14.33
67966;BMP280;54749;47.850;9.002;2022-12-29T11:00:19;95755.97;;;14.68
67966;BMP280;54749;47.850;9.002;2022-12-29T11:06:03;95751.53;;;14.00
67966;BMP280;54749;47.850;9.002;2022-12-29T11:08:38;95757.94;;;13.59
67966;BMP280;54749;47.850;9.002;2022-12-29T11:11:08;95750.25;;;13.33
67966;BMP280;54749;47.850;9.002;2022-12-29T11:13:57;95746.41;;;12.83
67966;BMP280;54749;47.850;9.002;2022-12-29T11:16:33;95745.06;;;12.61
67966;BMP280;54749;47.850;9.002;2022-12-29T11:19:01;95745.97;;;12.41
67966;BMP280;54749;47.850;9.002;2022-12-29T11:21:33;95746.19;;;12.38
67966;BMP280;54749;47.850;9.002;2022-12-29T11:24:03;95738.47;;;12.40
67966;BMP280;54749;47.850;9.002;2022-12-29T11:26:31;95729.97;;;12.50
67966;BMP280;54749;47.850;9.002;2022-12-29T11:31:49;95736.38;;;12.54
67966;BMP280;54749;47.850;9.002;2022-12-29T11:39:56;95715.75;;;13.40
67966;BMP280;54749;47.850;9.002;2022-12-29T11:42:38;95715.81;;;13.12
67966;BMP280;54749;47.850;9.002;2022-12-29T11:47:50;95704.91;;;12.84
67966;BMP280;54749;47.850;9.002;2022-12-29T11:50:25;95708.38;;;13.01
67966;BMP280;54749;47.850;9.002;2022-12-29T11:55:58;95711.72;;;13.02
67966;BMP280;54749;47.850;9.002;2022-12-29T11:58:31;95705.44;;;12.96
67966;BMP280;54749;47.850;9.002;2022-12-29T12:03:55;95699.03;;;12.83
67966;BMP280;54749;47.850;9.002;2022-12-29T12:06:25;95704.91;;;12.84
67966;BMP280;54749;47.850;9.002;2022-12-29T12:09:02;95694.88;;;12.92
67966;BMP280;54749;47.850;9.002;2022-12-29T12:11:37;95693.56;;;12.97
67966;BMP280;54749;47.850;9.002;2022-12-29T12:17:25;95671.75;;;13.13
67966;BMP280;54749;47.850;9.002;2022-12-29T12:20:26;95692.44;;;13.18
67966;BMP280;54749;47.850;9.002;2022-12-29T12:29:03;95693.78;;;13.03
67966;BMP280;54749;47.850;9.002;2022-12-29T12:31:43;95681.25;;;13.02
67966;BMP280;54749;47.850;9.002;2022-12-29T12:34:18;95691.00;;;12.97
67966;BMP280;54749;47.850;9.002;2022-12-29T12:36:54;95693.69;;;12.96
67966;BMP280;54749;47.850;9.002;2022-12-29T12:55:45;95687.00;;;12.58
67966;BMP280;54749;47.850;9.002;2022-12-29T12:58:27;95682.72;;;12.49
67966;BMP280;54749;47.850;9.002;2022-12-29T13:01:11;95697.94;;;12.49
67966;BMP280;54749;47.850;9.002;2022-12-29T13:09:50;95663.53;;;12.83
67966;BMP280;54749;47.850;9.002;2022-12-29T13:15:35;95663.00;;;12.61
67966;BMP280;54749;47.850;9.002;2022-12-29T13:18:44;95660.06;;;12.66
67966;BMP280;54749;47.850;9.002;2022-12-29T13:26:42;95662.19;;;12.89
67966;BMP280;54749;47.850;9.002;2022-12-29T13:29:18;95642.31;;;12.94
67966;BMP280;54749;47.850;9.002;2022-12-29T13:31:58;95662.84;;;12.91
67966;BMP280;54749;47.850;9.002;2022-12-29T13:34:45;95658.72;;;12.90
67966;BMP280;54749;47.850;9.002;2022-12-29T13:37:17;95661.78;;;12.84
67966;BMP280;54749;47.850;9.002;2022-12-29T13:39:48;95648.44;;;12.82
67966;BMP280;54749;47.850;9.002;2022-12-29T13:42:18;95647.13;;;12.78
67966;BMP280;54749;47.850;9.002;2022-12-29T13:44:48;95654.19;;;12.75
67966;BMP280;54749;47.850;9.002;2022-12-29T13:50:35;95655.50;;;12.88
67966;BMP280;54749;47.850;9.002;2022-12-29T13:58:45;95649.50;;;13.33
67966;BMP280;54749;47.850;9.002;2022-12-29T14:01:19;95654.47;;;13.35
67966;BMP280;54749;47.850;9.002;2022-12-29T14:03:49;95656.88;;;13.36
67966;BMP280;54749;47.850;9.002;2022-12-29T14:06:28;95646.72;;;13.36
67966;BMP280;54749;47.850;9.002;2022-12-29T14:08:58;95659.41;;;13.36
67966;BMP280;54749;47.850;9.002;2022-12-29T14:11:32;95653.03;;;13.23
67966;BMP280;54749;47.850;9.002;2022-12-29T14:14:24;95643.03;;;13.13
67966;BMP280;54749;47.850;9.002;2022-12-29T14:16:52;95665.13;;;12.94
67966;BMP280;54749;47.850;9.002;2022-12-29T14:19:30;95648.94;;;12.95
67966;BMP280;54749;47.850;9.002;2022-12-29T14:22:03;95641.09;;;12.88
67966;BMP280;54749;47.850;9.002;2022-12-29T14:34:56;95652.44;;;12.57
67966;BMP280;54749;47.850;9.002;2022-12-29T14:37:36;95653.13;;;12.59
67966;BMP280;54749;47.850;9.002;2022-12-29T14:42:33;95650.06;;;12.46
67966;BMP280;54749;47.850;9.002;2022-12-29T14:47:49;95658.16;;;12.12
67966;BMP280;54749;47.850;9.002;2022-12-29T14:50:25;95645.63;;;12.11
67966;BMP280;54749;47.850;9.002;2022-12-29T14:52:57;95651.63;;;12.10
67966;BMP280;54749;47.850;9.002;2022-12-29T14:55:47;95649.59;;;12.04
67966;BMP280;54749;47.850;9.002;2022-12-29T15:00:53;95665.59;;;12.05
67966;BMP280;54749;47.850;9.002;2022-12-29T15:03:30;95674.28;;;12.02
67966;BMP280;54749;47.850;9.002;2022-12-29T15:06:07;95669.72;;;11.96
67966;BMP280;54749;47.850;9.002;2022-12-29T15:08:58;95674.38;;;11.91
67966;BMP280;54749;47.850;9.002;2022-12-29T15:11:40;95675.03;;;11.84
67966;BMP280;54749;47.850;9.002;2022-12-29T15:14:28;95680.75;;;11.77
67966;BMP280;54749;47.850;9.002;2022-12-29T15:16:56;95684.69;;;11.70
67966;BMP280;54749;47.850;9.002;2022-12-29T15:19:25;95680.72;;;11.68
67966;BMP280;54749;47.850;9.002;2022-12-29T15:21:54;95680.81;;;11.66
67966;BMP280;54749;47.850;9.002;2022-12-29T15:24:22;95683.47;;;11.65
67966;BMP280;54749;47.850;9.002;2022-12-29T15:26:51;95672.81;;;11.61
67966;BMP280;54749;47.850;9.002;2022-12-29T15:32:01;95676.38;;;11.50
67966;BMP280;54749;47.850;9.002;2022-12-29T15:34:36;95686.63;;;11.48
67966;BMP280;54749;47.850;9.002;2022-12-29T15:37:07;95685.16;;;11.46
67966;BMP280;54749;47.850;9.002;2022-12-29T15:39:35;95691.63;;;11.39
67966;BMP280;54749;47.850;9.002;2022-12-29T15:42:07;95692.59;;;11.38
67966;BMP280;54749;47.850;9.002;2022-12-29T15:44:42;95697.88;;;11.35
67966;BMP280;54749;47.850;9.002;2022-12-29T15:47:25;95693.63;;;11.36
67966;BMP280;54749;47.850;9.002;2022-12-29T15:50:05;95694.69;;;11.33
67966;BMP280;54749;47.850;9.002;2022-12-29T15:52:33;95708.38;;;11.31
67966;BMP280;54749;47.850;9.002;2022-12-29T15:55:01;95710.44;;;11.26
67966;BMP280;54749;47.850;9.002;2022-12-29T15:57:36;95694.59;;;11.24
67966;BMP280;54749;47.850;9.002;2022-12-29T16:00:04;95709.22;;;11.20
67966;BMP280;54749;47.850;9.002;2022-12-29T16:02:42;95711.06;;;11.19
67966;BMP280;54749;47.850;9.002;2022-12-29T16:05:15;95701.22;;;11.16
67966;BMP280;54749;47.850;9.002;2022-12-29T16:07:56;95712.50;;;11.12
67966;BMP280;54749;47.850;9.002;2022-12-29T16:12:54;95717.69;;;11.10
67966;BMP280;54749;47.850;9.002;2022-12-29T16:15:21;95722.03;;;11.08
67966;BMP280;54749;47.850;9.002;2022-12-29T16:17:52;95723.00;;;11.07
67966;BMP280;54749;47.850;9.002;2022-12-29T16:20:34;95723.38;;;11.03
67966;BMP280;54749;47.850;9.002;2022-12-29T16:23:05;95732.78;;;11.01
67966;BMP280;54749;47.850;9.002;2022-12-29T16:25:34;95733.16;;;10.97
67966;BMP280;54749;47.850;9.002;2022-12-29T16:28:19;95724.31;;;10.91
67966;BMP280;54749;47.850;9.002;2022-12-29T16:30:57;95735.59;;;10.87
67966;BMP280;54749;47.850;9.002;2022-12-29T16:33:35;95726.56;;;10.85
67966;BMP280;54749;47.850;9.002;2022-12-29T16:36:21;95729.34;;;10.82
67966;BMP280;54749;47.850;9.002;2022-12-29T16:38:49;95731.44;;;10.77
67966;BMP280;54749;47.850;9.002;2022-12-29T16:41:30;95739.22;;;10.74
67966;BMP280;54749;47.850;9.002;2022-12-29T16:44:18;95737.06;;;10.70
67966;BMP280;54749;47.850;9.002;2022-12-29T16:49:39;95740.75;;;10.66
67966;BMP280;54749;47.850;9.002;2022-12-29T16:52:12;95740.09;;;10.64
67966;BMP280;54749;47.850;9.002;2022-12-29T16:54:40;95741.13;;;10.62
67966;BMP280;54749;47.850;9.002;2022-12-29T16:57:08;95735.50;;;10.58
67966;BMP280;54749;47.850;9.002;2022-12-29T16:59:40;95737.34;;;10.56
67966;BMP280;54749;47.850;9.002;2022-12-29T17:02:16;95749.88;;;10.58
67966;BMP280;54749;47.850;9.002;2022-12-29T17:04:46;95744.00;;;10.57
67966;BMP280;54749;47.850;9.002;2022-12-29T17:07:18;95743.56;;;10.52
67966;BMP280;54749;47.850;9.002;2022-12-29T17:09:46;95743.56;;;10.52
67966;BMP280;54749;47.850;9.002;2022-12-29T17:12:27;95750.69;;;10.48
67966;BMP280;54749;47.850;9.002;2022-12-29T17:15:01;95751.66;;;10.47
67966;BMP280;54749;47.850;9.002;2022-12-29T17:17:33;95747.75;;;10.43
67966;BMP280;54749;47.850;9.002;2022-12-29T17:22:36;95743.06;;;10.38
67966;BMP280;54749;47.850;9.002;2022-12-29T17:25:03;95738.22;;;10.35